Flight Track Log - Related Links

Times and Time Zones

All times are in EDT time to prevent confusion due to time zone crossing. See the SWA2236 flight status page for this flight to view local times or setup timezone preferences in your user account.

Time Position Orientation Groundspeed Altitude Reporting Facility
EDT Latitude Longitude Course Direction KTS MPH feet Rate Location/Type
Wed 12:15:30 PM 37.7667 -122.3333 107° East 238 274 4,400  Level Northern Cal TRACON
Wed 12:16:31 PM 37.7333 -122.4167 243° Southwest 235 270 7,800 2,826 Climbing Northern Cal TRACON
Wed 12:17:31 PM 37.6667 -122.4333 191° South 241 277 10,100 1,442 Climbing Northern Cal TRACON
Wed 12:18:15 PM 37.6197 -122.4519 197° South 264 304 10,300 1,829 Climbing Oakland Center
Wed 12:19:16 PM 37.5253 -122.4428 176° South 333 383 13,300 3,000 Climbing Oakland Center
Wed 12:20:00 PM 37.2055 -122.0886 107° East  Level FlightAware Approximate
Wed 12:20:17 PM 37.4714 -122.3497 126° Southeast 364 419 16,400  Level Oakland Center
Wed 12:21:19 PM 37.4372 -122.1947 105° East 386 444 19,200 2,585 Climbing Oakland Center
Wed 12:22:20 PM 37.4072 -122.0594 106° East 400 460 21,700 2,293 Climbing Oakland Center
Wed 12:23:22 PM 37.3758 -121.9181 106° East 416 479 23,900 2,098 Climbing Oakland Center
Wed 12:24:23 PM 37.3439 -121.7750 106° East 432 497 26,000 1,512 Climbing Oakland Center
Wed 12:25:25 PM 37.3097 -121.6242 106° East 447 514 27,000 484 Climbing Oakland Center
Wed 12:26:27 PM 37.2758 -121.4733 106° East 449 517 27,000 683 Level Oakland Center
Wed 12:27:28 PM 37.2419 -121.3242 106° East 447 514 28,400 2,016 Climbing Oakland Center
Wed 12:28:29 PM 37.2014 -121.1458 106° East 444 511 31,100 2,195 Climbing Oakland Center
Wed 12:29:31 PM 37.1664 -120.9953 106° East 447 514 32,900 927 Climbing Oakland Center
Wed 12:30:32 PM 37.1322 -120.8475 106° East 445 512 33,000 49 Climbing Oakland Center
Wed 12:31:34 PM 37.0969 -120.7011 107° East 440 506 33,000  Level Oakland Center
Wed 12:32:35 PM 37.0628 -120.5567 106° East 436 502 33,000  Level Oakland Center
Wed 12:33:37 PM 37.0289 -120.4108 106° East 435 501 33,000  Level Oakland Center
Wed 12:34:38 PM 36.9947 -120.2658 106° East 435 501 33,000  Level Oakland Center
Wed 12:35:40 PM 36.9531 -120.1000 107° East 436 502 33,000  Level Oakland Center
Wed 12:36:41 PM 36.9181 -119.9550 107° East 436 502 33,000  Level Oakland Center
Wed 12:37:42 PM 36.8931 -119.8061 102° East 437 503 33,000  Level Oakland Center
Wed 12:38:44 PM 36.9403 -119.6533 69° East 468 539 33,000  Level Oakland Center
Wed 12:39:45 PM 36.9922 -119.5039 66° East 469 540 33,000  Level Oakland Center
Wed 12:40:47 PM 37.0442 -119.3519 67° East 473 544 33,000  Level Oakland Center
Wed 12:41:48 PM 37.0956 -119.1997 67° East 474 545 33,000  Level Oakland Center
Wed 12:42:50 PM 37.1475 -119.0467 67° East 477 549 33,000  Level Oakland Center
Wed 12:43:51 PM 37.2092 -118.8633 67° East 476 548 33,000  Level Oakland Center
Wed 12:44:52 PM 37.2625 -118.7117 66° East 476 548 33,000  Level Oakland Center
Wed 12:45:54 PM 37.3136 -118.5589 67° East 475 547 33,000  Level Oakland Center
Wed 12:46:55 PM 37.3639 -118.4086 67° East 474 545 33,000  Level Oakland Center
Wed 12:47:57 PM 37.3833 -118.2492 81° East 464 534 33,000  Level Oakland Center
Wed 12:48:58 PM 37.3908 -118.0889 87° East 461 531 33,000  Level Oakland Center
Wed 12:50:00 PM 37.3997 -117.9283 86° East 461 531 33,000  Level Oakland Center
Wed 12:51:01 PM 37.4097 -117.7361 86° East 460 529 33,000  Level Oakland Center
Wed 12:52:02 PM 37.4164 -117.5767 87° East 459 528 33,000  Level Oakland Center
Wed 12:53:04 PM 37.4242 -117.4169 86° East 459 528 33,000  Level Oakland Center
Wed 12:54:05 PM 37.4036 -117.2686 100° East 439 505 33,000  Level Oakland Center
Wed 12:55:07 PM 37.3122 -117.1786 142° Southeast 419 482 33,000  Level Oakland Center
Wed 12:56:08 PM 37.2167 -117.0997 147° Southeast 413 475 33,000  Level Oakland Center
Wed 12:57:10 PM 37.1197 -117.0175 146° Southeast 420 483 33,000  Level Oakland Center
Wed 12:58:11 PM 37.0236 -116.9347 145° Southeast 418 481 33,000  Level Oakland Center
Wed 12:59:13 PM 36.9086 -116.8386 146° Southeast 417 480 33,000 -49 Level Oakland Center
Wed 01:00:14 PM 36.8119 -116.7567 146° Southeast 418 481 32,900 -1,317 Descending Oakland Center
Wed 01:01:16 PM 36.7314 -116.6506 133° Southeast 419 482 30,300 -2,439 Descending Oakland Center
Wed 01:02:17 PM 36.6536 -116.5406 131° Southeast 424 488 27,900 -2,195 Descending Oakland Center
Wed 01:03:19 PM 36.5786 -116.4322 131° Southeast 418 481 25,800 -2,068 Descending Oakland Center
Wed 01:04:45 PM 36.4731 -116.2808 131° Southeast 391 450 22,800 -2,027 Descending Los Angeles Center
Wed 01:05:47 PM 36.4036 -116.1806 131° Southeast 383 441 20,800 -1,941 Descending Los Angeles Center
Wed 01:06:27 PM 36.3528 -116.1139 133° Southeast 373 429 19,500 -1,887 Descending Los Angeles Center
Wed 01:07:51 PM 36.2650 -115.9892 131° Southeast 356 410 16,900 -1,438 Descending Los Angeles Center
Wed 01:08:53 PM 36.2003 -115.8936 130° Southeast 340 391 16,000 -919 Descending Los Angeles Center
Wed 01:09:55 PM 36.1656 -115.7900 113° Southeast 325 374 15,000 -1,065 Descending Los Angeles Center
Wed 01:10:57 PM 36.1308 -115.6828 112° Southeast 312 359 13,800 -968 Descending Los Angeles Center
Wed 01:11:59 PM 36.0983 -115.5858 113° Southeast 307 353 13,000 -726 Descending Los Angeles Center
Wed 01:13:01 PM 36.0667 -115.4850 111° Southeast 301 346 12,300 -912 Descending Los Angeles Center
Wed 01:14:04 PM 36.0364 -115.3911 112° Southeast 298 343 11,100 -976 Descending Los Angeles Center
Wed 01:15:04 PM 36.0242 -115.2969 99° East 273 314 10,300 -1,041 Descending Los Angeles Center
Wed 01:16:05 PM 36.0178 -115.1981 95° East 269 310 9,000 -762 Descending Los Angeles Center
Wed 01:17:10 PM 36.0133 -115.1200 94° East 261 300 8,700 -567 Descending Los Angeles Center
Wed 01:18:12 PM 36.0072 -115.0286 95° East 233 268 7,800 -911 Descending Los Angeles Center
Wed 01:19:02 PM 36.0042 -114.9767 94° East 202 232 7,000 -1,364 Descending Los Angeles Center
Wed 01:20:02 PM 36.0469 -114.9650 12° North 209 241 5,300 -1,559 Descending Los Angeles Center
Wed 01:21:09 PM 36.0736 -115.0281 298° West 197 227 3,700 -1,266 Descending Los Angeles Center
Wed 01:22:10 PM 36.0739 -115.0892 270° West 175 201 2,600 -761 Descending Los Angeles Center
Wed 01:23:23 PM 36.0739 -115.1422 270° West 172 198 2,000 -493 Descending Los Angeles Center
Wed 01:25:00 PM 36.0667 -115.1500 270° West  Level FlightAware Approximate

Login

Don't have an account? Register now (free) for customized features, flight alerts, and more!